sensor_id;sensor_type;location;lat;lon;timestamp;temperature;humidity
37974;DHT22;23796;51.458;7.000;2023-05-07T00:01:00;16.10;88.40
37974;DHT22;23796;51.458;7.000;2023-05-07T00:03:28;16.00;88.90
37974;DHT22;23796;51.458;7.000;2023-05-07T00:05:54;16.00;89.10
37974;DHT22;23796;51.458;7.000;2023-05-07T00:08:19;16.10;88.80
37974;DHT22;23796;51.458;7.000;2023-05-07T00:10:46;16.10;88.40
37974;DHT22;23796;51.458;7.000;2023-05-07T00:13:14;16.10;88.50
37974;DHT22;23796;51.458;7.000;2023-05-07T00:15:40;16.00;88.80
37974;DHT22;23796;51.458;7.000;2023-05-07T00:18:05;16.00;88.70
37974;DHT22;23796;51.458;7.000;2023-05-07T00:20:31;15.90;89.10
37974;DHT22;23796;51.458;7.000;2023-05-07T00:22:59;15.90;89.30
37974;DHT22;23796;51.458;7.000;2023-05-07T00:25:27;16.00;89.00
37974;DHT22;23796;51.458;7.000;2023-05-07T00:27:52;16.10;88.90
37974;DHT22;23796;51.458;7.000;2023-05-07T00:30:20;16.10;88.70
37974;DHT22;23796;51.458;7.000;2023-05-07T00:32:46;16.10;88.70
37974;DHT22;23796;51.458;7.000;2023-05-07T00:35:16;15.90;89.10
37974;DHT22;23796;51.458;7.000;2023-05-07T00:37:44;15.80;89.80
37974;DHT22;23796;51.458;7.000;2023-05-07T00:40:10;15.80;89.80
37974;DHT22;23796;51.458;7.000;2023-05-07T00:42:38;15.90;89.70
37974;DHT22;23796;51.458;7.000;2023-05-07T00:45:03;15.80;89.70
37974;DHT22;23796;51.458;7.000;2023-05-07T00:47:30;15.80;89.80
37974;DHT22;23796;51.458;7.000;2023-05-07T00:49:57;15.80;89.70
37974;DHT22;23796;51.458;7.000;2023-05-07T00:52:25;15.70;89.90
37974;DHT22;23796;51.458;7.000;2023-05-07T00:54:51;15.70;90.20
37974;DHT22;23796;51.458;7.000;2023-05-07T00:57:17;15.60;90.40
37974;DHT22;23796;51.458;7.000;2023-05-07T00:59:43;15.60;90.60
37974;DHT22;23796;51.458;7.000;2023-05-07T01:02:08;15.50;90.60
37974;DHT22;23796;51.458;7.000;2023-05-07T01:04:34;15.40;91.20
37974;DHT22;23796;51.458;7.000;2023-05-07T01:07:01;15.50;91.30
37974;DHT22;23796;51.458;7.000;2023-05-07T01:09:28;15.50;90.90
37974;DHT22;23796;51.458;7.000;2023-05-07T01:11:55;15.60;90.50
37974;DHT22;23796;51.458;7.000;2023-05-07T01:14:23;15.60;90.20
37974;DHT22;23796;51.458;7.000;2023-05-07T01:16:54;15.70;89.90
37974;DHT22;23796;51.458;7.000;2023-05-07T01:19:20;15.70;89.60
37974;DHT22;23796;51.458;7.000;2023-05-07T01:21:47;15.80;89.40
37974;DHT22;23796;51.458;7.000;2023-05-07T01:24:13;15.80;89.20
37974;DHT22;23796;51.458;7.000;2023-05-07T01:26:40;15.80;89.10
37974;DHT22;23796;51.458;7.000;2023-05-07T01:29:06;15.80;89.30
37974;DHT22;23796;51.458;7.000;2023-05-07T01:31:34;15.80;89.40
37974;DHT22;23796;51.458;7.000;2023-05-07T01:34:02;15.80;89.30
37974;DHT22;23796;51.458;7.000;2023-05-07T01:36:30;15.80;89.20
37974;DHT22;23796;51.458;7.000;2023-05-07T01:38:57;15.80;89.20
37974;DHT22;23796;51.458;7.000;2023-05-07T01:41:24;15.80;89.00
37974;DHT22;23796;51.458;7.000;2023-05-07T01:43:54;15.80;89.00
37974;DHT22;23796;51.458;7.000;2023-05-07T01:46:23;15.80;89.00
37974;DHT22;23796;51.458;7.000;2023-05-07T01:48:50;15.80;89.10
37974;DHT22;23796;51.458;7.000;2023-05-07T01:51:16;15.80;89.20
37974;DHT22;23796;51.458;7.000;2023-05-07T01:53:41;15.80;89.30
37974;DHT22;23796;51.458;7.000;2023-05-07T01:56:11;15.70;89.30
37974;DHT22;23796;51.458;7.000;2023-05-07T01:58:39;15.70;89.40
37974;DHT22;23796;51.458;7.000;2023-05-07T02:01:07;15.60;89.50
37974;DHT22;23796;51.458;7.000;2023-05-07T02:03:35;15.60;89.80
37974;DHT22;23796;51.458;7.000;2023-05-07T02:06:01;15.60;89.80
37974;DHT22;23796;51.458;7.000;2023-05-07T02:08:26;15.60;89.90
37974;DHT22;23796;51.458;7.000;2023-05-07T02:10:52;15.60;89.90
37974;DHT22;23796;51.458;7.000;2023-05-07T02:13:19;15.50;90.20
37974;DHT22;23796;51.458;7.000;2023-05-07T02:15:45;15.50;90.20
37974;DHT22;23796;51.458;7.000;2023-05-07T02:18:15;15.50;90.10
37974;DHT22;23796;51.458;7.000;2023-05-07T02:20:41;15.50;90.10
37974;DHT22;23796;51.458;7.000;2023-05-07T02:23:06;15.50;90.20
37974;DHT22;23796;51.458;7.000;2023-05-07T02:25:34;15.50;90.20
37974;DHT22;23796;51.458;7.000;2023-05-07T02:28:02;15.40;90.30
37974;DHT22;23796;51.458;7.000;2023-05-07T02:30:28;15.40;90.40
37974;DHT22;23796;51.458;7.000;2023-05-07T02:32:58;15.40;90.50
37974;DHT22;23796;51.458;7.000;2023-05-07T02:35:25;15.40;90.60
37974;DHT22;23796;51.458;7.000;2023-05-07T02:37:51;15.40;91.40
37974;DHT22;23796;51.458;7.000;2023-05-07T02:40:17;15.30;92.20
37974;DHT22;23796;51.458;7.000;2023-05-07T02:42:44;15.30;92.30
37974;DHT22;23796;51.458;7.000;2023-05-07T02:45:10;15.30;92.20
37974;DHT22;23796;51.458;7.000;2023-05-07T02:47:36;15.30;92.20
37974;DHT22;23796;51.458;7.000;2023-05-07T02:50:02;15.30;92.40
37974;DHT22;23796;51.458;7.000;2023-05-07T02:52:27;15.30;92.50
37974;DHT22;23796;51.458;7.000;2023-05-07T02:54:53;15.20;92.70
37974;DHT22;23796;51.458;7.000;2023-05-07T02:57:18;15.20;92.80
37974;DHT22;23796;51.458;7.000;2023-05-07T02:59:44;15.20;93.00
37974;DHT22;23796;51.458;7.000;2023-05-07T03:02:10;15.20;93.20
37974;DHT22;23796;51.458;7.000;2023-05-07T03:04:39;15.00;93.80
37974;DHT22;23796;51.458;7.000;2023-05-07T03:07:04;14.90;94.60
37974;DHT22;23796;51.458;7.000;2023-05-07T03:09:32;14.80;94.90
37974;DHT22;23796;51.458;7.000;2023-05-07T03:11:58;14.80;95.20
37974;DHT22;23796;51.458;7.000;2023-05-07T03:14:23;14.80;95.30
37974;DHT22;23796;51.458;7.000;2023-05-07T03:16:50;14.80;95.00
37974;DHT22;23796;51.458;7.000;2023-05-07T03:19:18;14.80;95.30
37974;DHT22;23796;51.458;7.000;2023-05-07T03:21:46;14.80;95.20
37974;DHT22;23796;51.458;7.000;2023-05-07T03:24:14;14.90;95.10
37974;DHT22;23796;51.458;7.000;2023-05-07T03:26:42;14.90;95.10
37974;DHT22;23796;51.458;7.000;2023-05-07T03:29:07;14.80;95.30
37974;DHT22;23796;51.458;7.000;2023-05-07T03:31:33;14.80;95.60
37974;DHT22;23796;51.458;7.000;2023-05-07T03:34:01;14.70;95.70
37974;DHT22;23796;51.458;7.000;2023-05-07T03:36:29;14.80;95.60
37974;DHT22;23796;51.458;7.000;2023-05-07T03:38:54;14.80;95.40
37974;DHT22;23796;51.458;7.000;2023-05-07T03:41:20;14.90;95.20
37974;DHT22;23796;51.458;7.000;2023-05-07T03:43:46;14.90;95.00
37974;DHT22;23796;51.458;7.000;2023-05-07T03:46:11;14.90;94.90
37974;DHT22;23796;51.458;7.000;2023-05-07T03:48:39;14.90;94.80
37974;DHT22;23796;51.458;7.000;2023-05-07T03:51:04;15.00;94.80
37974;DHT22;23796;51.458;7.000;2023-05-07T03:53:30;15.00;94.80
37974;DHT22;23796;51.458;7.000;2023-05-07T03:55:56;15.00;94.80
37974;DHT22;23796;51.458;7.000;2023-05-07T03:58:21;15.00;94.80
37974;DHT22;23796;51.458;7.000;2023-05-07T04:00:47;14.90;94.90
37974;DHT22;23796;51.458;7.000;2023-05-07T04:03:13;14.90;94.90
37974;DHT22;23796;51.458;7.000;2023-05-07T04:05:39;14.90;95.00
37974;DHT22;23796;51.458;7.000;2023-05-07T04:08:07;14.80;95.60
37974;DHT22;23796;51.458;7.000;2023-05-07T04:10:32;14.80;95.60
37974;DHT22;23796;51.458;7.000;2023-05-07T04:12:58;14.80;95.50
37974;DHT22;23796;51.458;7.000;2023-05-07T04:15:24;14.80;95.40
37974;DHT22;23796;51.458;7.000;2023-05-07T04:17:50;14.80;95.40
37974;DHT22;23796;51.458;7.000;2023-05-07T04:20:19;14.80;95.50
37974;DHT22;23796;51.458;7.000;2023-05-07T04:22:47;14.80;95.50
37974;DHT22;23796;51.458;7.000;2023-05-07T04:25:12;14.70;95.90
37974;DHT22;23796;51.458;7.000;2023-05-07T04:27:38;14.80;95.70
37974;DHT22;23796;51.458;7.000;2023-05-07T04:30:06;14.80;95.50
37974;DHT22;23796;51.458;7.000;2023-05-07T04:32:34;14.90;95.20
37974;DHT22;23796;51.458;7.000;2023-05-07T04:35:03;14.90;95.10
37974;DHT22;23796;51.458;7.000;2023-05-07T04:37:29;14.90;94.90
37974;DHT22;23796;51.458;7.000;2023-05-07T04:39:59;15.00;94.70
37974;DHT22;23796;51.458;7.000;2023-05-07T04:42:28;15.00;94.60
37974;DHT22;23796;51.458;7.000;2023-05-07T04:44:53;15.00;94.70
37974;DHT22;23796;51.458;7.000;2023-05-07T04:47:20;15.00;94.50
37974;DHT22;23796;51.458;7.000;2023-05-07T04:49:46;15.00;94.40
37974;DHT22;23796;51.458;7.000;2023-05-07T04:52:14;15.00;94.30
37974;DHT22;23796;51.458;7.000;2023-05-07T04:54:42;15.10;94.20
37974;DHT22;23796;51.458;7.000;2023-05-07T04:57:10;15.10;94.10
37974;DHT22;23796;51.458;7.000;2023-05-07T04:59:35;15.10;93.90
37974;DHT22;23796;51.458;7.000;2023-05-07T05:02:01;15.10;94.00
37974;DHT22;23796;51.458;7.000;2023-05-07T05:04:31;15.10;94.00
37974;DHT22;23796;51.458;7.000;2023-05-07T05:06:57;15.10;94.10
37974;DHT22;23796;51.458;7.000;2023-05-07T05:09:23;14.90;94.50
37974;DHT22;23796;51.458;7.000;2023-05-07T05:11:49;14.90;94.90
37974;DHT22;23796;51.458;7.000;2023-05-07T05:14:14;15.00;94.70
37974;DHT22;23796;51.458;7.000;2023-05-07T05:16:40;15.00;94.50
37974;DHT22;23796;51.458;7.000;2023-05-07T05:19:08;15.00;94.50
37974;DHT22;23796;51.458;7.000;2023-05-07T05:21:33;15.00;94.60
37974;DHT22;23796;51.458;7.000;2023-05-07T05:23:59;15.00;94.50
37974;DHT22;23796;51.458;7.000;2023-05-07T05:26:26;15.00;94.40
37974;DHT22;23796;51.458;7.000;2023-05-07T05:28:52;15.00;94.30
37974;DHT22;23796;51.458;7.000;2023-05-07T05:31:20;15.00;94.20
37974;DHT22;23796;51.458;7.000;2023-05-07T05:33:46;15.10;94.10
37974;DHT22;23796;51.458;7.000;2023-05-07T05:36:12;15.10;93.80
37974;DHT22;23796;51.458;7.000;2023-05-07T05:38:39;15.20;93.50
37974;DHT22;23796;51.458;7.000;2023-05-07T05:41:06;15.30;93.20
37974;DHT22;23796;51.458;7.000;2023-05-07T05:43:33;15.30;93.00
37974;DHT22;23796;51.458;7.000;2023-05-07T05:46:00;15.20;92.70
37974;DHT22;23796;51.458;7.000;2023-05-07T05:48:29;15.20;93.10
37974;DHT22;23796;51.458;7.000;2023-05-07T05:50:55;15.20;92.70
37974;DHT22;23796;51.458;7.000;2023-05-07T05:53:21;15.30;92.30
37974;DHT22;23796;51.458;7.000;2023-05-07T05:55:49;15.40;92.10
37974;DHT22;23796;51.458;7.000;2023-05-07T05:58:15;15.40;91.80
37974;DHT22;23796;51.458;7.000;2023-05-07T06:00:43;15.50;91.50
37974;DHT22;23796;51.458;7.000;2023-05-07T06:03:09;15.60;91.20
37974;DHT22;23796;51.458;7.000;2023-05-07T06:05:35;15.60;91.00
37974;DHT22;23796;51.458;7.000;2023-05-07T06:08:01;15.60;90.90
37974;DHT22;23796;51.458;7.000;2023-05-07T06:10:27;15.70;90.50
37974;DHT22;23796;51.458;7.000;2023-05-07T06:12:52;15.70;90.00
37974;DHT22;23796;51.458;7.000;2023-05-07T06:15:18;15.90;89.40
37974;DHT22;23796;51.458;7.000;2023-05-07T06:17:46;15.90;89.00
37974;DHT22;23796;51.458;7.000;2023-05-07T06:20:11;16.10;88.60
37974;DHT22;23796;51.458;7.000;2023-05-07T06:22:39;16.20;88.00
37974;DHT22;23796;51.458;7.000;2023-05-07T06:25:08;16.40;87.40
37974;DHT22;23796;51.458;7.000;2023-05-07T06:27:33;16.50;86.90
37974;DHT22;23796;51.458;7.000;2023-05-07T06:30:04;16.50;86.30
37974;DHT22;23796;51.458;7.000;2023-05-07T06:32:32;16.60;86.10
37974;DHT22;23796;51.458;7.000;2023-05-07T06:34:57;16.80;85.40
37974;DHT22;23796;51.458;7.000;2023-05-07T06:37:25;16.90;85.10
37974;DHT22;23796;51.458;7.000;2023-05-07T06:39:53;17.00;84.50
37974;DHT22;23796;51.458;7.000;2023-05-07T06:42:18;17.10;83.80
37974;DHT22;23796;51.458;7.000;2023-05-07T06:44:44;17.20;83.40
37974;DHT22;23796;51.458;7.000;2023-05-07T06:47:10;17.30;83.00
37974;DHT22;23796;51.458;7.000;2023-05-07T06:49:36;17.40;82.90
37974;DHT22;23796;51.458;7.000;2023-05-07T06:52:01;17.40;82.80
37974;DHT22;23796;51.458;7.000;2023-05-07T06:54:27;17.50;82.50
37974;DHT22;23796;51.458;7.000;2023-05-07T06:56:52;17.70;82.10
37974;DHT22;23796;51.458;7.000;2023-05-07T06:59:18;17.80;81.60
37974;DHT22;23796;51.458;7.000;2023-05-07T07:01:44;18.00;80.60
37974;DHT22;23796;51.458;7.000;2023-05-07T07:04:10;18.10;79.90
37974;DHT22;23796;51.458;7.000;2023-05-07T07:06:35;18.10;79.50
37974;DHT22;23796;51.458;7.000;2023-05-07T07:09:06;18.10;79.40
37974;DHT22;23796;51.458;7.000;2023-05-07T07:11:34;18.20;79.30
37974;DHT22;23796;51.458;7.000;2023-05-07T07:14:00;18.20;79.00
37974;DHT22;23796;51.458;7.000;2023-05-07T07:16:25;18.20;79.10
37974;DHT22;23796;51.458;7.000;2023-05-07T07:18:51;18.30;79.10
37974;DHT22;23796;51.458;7.000;2023-05-07T07:21:19;18.30;78.50
37974;DHT22;23796;51.458;7.000;2023-05-07T07:23:45;18.20;78.70
37974;DHT22;23796;51.458;7.000;2023-05-07T07:26:13;18.10;79.50
37974;DHT22;23796;51.458;7.000;2023-05-07T07:28:45;18.30;79.20
37974;DHT22;23796;51.458;7.000;2023-05-07T07:31:13;18.40;79.80
37974;DHT22;23796;51.458;7.000;2023-05-07T07:33:39;18.50;79.80
37974;DHT22;23796;51.458;7.000;2023-05-07T07:36:06;18.60;79.70
37974;DHT22;23796;51.458;7.000;2023-05-07T07:38:32;18.60;79.40
37974;DHT22;23796;51.458;7.000;2023-05-07T07:40:58;18.60;79.50
37974;DHT22;23796;51.458;7.000;2023-05-07T07:43:25;18.70;79.60
37974;DHT22;23796;51.458;7.000;2023-05-07T07:45:54;18.70;79.20
37974;DHT22;23796;51.458;7.000;2023-05-07T07:48:19;18.70;79.80
37974;DHT22;23796;51.458;7.000;2023-05-07T07:50:47;18.60;79.30
37974;DHT22;23796;51.458;7.000;2023-05-07T07:53:15;18.20;80.80
37974;DHT22;23796;51.458;7.000;2023-05-07T07:55:43;18.00;81.70
37974;DHT22;23796;51.458;7.000;2023-05-07T07:58:11;18.30;81.10
37974;DHT22;23796;51.458;7.000;2023-05-07T08:00:37;18.30;80.20
37974;DHT22;23796;51.458;7.000;2023-05-07T08:03:02;18.20;81.10
37974;DHT22;23796;51.458;7.000;2023-05-07T08:05:31;18.30;80.80
37974;DHT22;23796;51.458;7.000;2023-05-07T08:07:57;18.50;79.90
37974;DHT22;23796;51.458;7.000;2023-05-07T08:10:23;18.50;79.80
37974;DHT22;23796;51.458;7.000;2023-05-07T08:12:54;18.70;79.50
37974;DHT22;23796;51.458;7.000;2023-05-07T08:15:19;19.00;78.60
37974;DHT22;23796;51.458;7.000;2023-05-07T08:17:45;19.10;77.80
37974;DHT22;23796;51.458;7.000;2023-05-07T08:20:11;19.40;77.20
37974;DHT22;23796;51.458;7.000;2023-05-07T08:22:36;19.60;76.00
37974;DHT22;23796;51.458;7.000;2023-05-07T08:25:03;19.70;75.20
37974;DHT22;23796;51.458;7.000;2023-05-07T08:27:31;19.90;75.00
37974;DHT22;23796;51.458;7.000;2023-05-07T08:29:59;20.00;74.60
37974;DHT22;23796;51.458;7.000;2023-05-07T08:32:29;20.20;73.80
37974;DHT22;23796;51.458;7.000;2023-05-07T08:34:54;20.30;73.00
37974;DHT22;23796;51.458;7.000;2023-05-07T08:37:22;20.50;72.50
37974;DHT22;23796;51.458;7.000;2023-05-07T08:39:51;20.50;72.10
37974;DHT22;23796;51.458;7.000;2023-05-07T08:42:20;20.60;72.00
37974;DHT22;23796;51.458;7.000;2023-05-07T08:44:53;20.10;73.10
37974;DHT22;23796;51.458;7.000;2023-05-07T08:47:26;20.20;72.80
37974;DHT22;23796;51.458;7.000;2023-05-07T08:49:55;20.30;72.80
37974;DHT22;23796;51.458;7.000;2023-05-07T08:52:23;20.40;72.10
37974;DHT22;23796;51.458;7.000;2023-05-07T08:54:48;20.60;71.90
37974;DHT22;23796;51.458;7.000;2023-05-07T08:57:16;20.40;72.40
37974;DHT22;23796;51.458;7.000;2023-05-07T08:59:44;20.50;72.60
37974;DHT22;23796;51.458;7.000;2023-05-07T09:02:12;20.50;72.50
37974;DHT22;23796;51.458;7.000;2023-05-07T09:04:38;20.20;73.20
37974;DHT22;23796;51.458;7.000;2023-05-07T09:07:04;20.20;72.70
37974;DHT22;23796;51.458;7.000;2023-05-07T09:09:32;20.30;72.30
37974;DHT22;23796;51.458;7.000;2023-05-07T09:12:00;20.40;73.00
37974;DHT22;23796;51.458;7.000;2023-05-07T09:14:27;20.40;73.40
37974;DHT22;23796;51.458;7.000;2023-05-07T09:16:53;20.40;72.60
37974;DHT22;23796;51.458;7.000;2023-05-07T09:19:23;20.40;71.80
37974;DHT22;23796;51.458;7.000;2023-05-07T09:21:50;20.50;71.40
37974;DHT22;23796;51.458;7.000;2023-05-07T09:24:15;20.70;71.90
37974;DHT22;23796;51.458;7.000;2023-05-07T09:26:46;21.00;71.70
37974;DHT22;23796;51.458;7.000;2023-05-07T09:29:11;20.90;71.60
37974;DHT22;23796;51.458;7.000;2023-05-07T09:31:37;20.40;73.30
37974;DHT22;23796;51.458;7.000;2023-05-07T09:34:04;20.40;73.20
37974;DHT22;23796;51.458;7.000;2023-05-07T09:36:31;20.50;72.40
37974;DHT22;23796;51.458;7.000;2023-05-07T09:38:59;20.50;72.80
37974;DHT22;23796;51.458;7.000;2023-05-07T09:41:32;20.50;72.10
37974;DHT22;23796;51.458;7.000;2023-05-07T09:44:00;20.90;71.30
37974;DHT22;23796;51.458;7.000;2023-05-07T09:46:30;21.30;70.10
37974;DHT22;23796;51.458;7.000;2023-05-07T09:49:02;21.60;68.90
37974;DHT22;23796;51.458;7.000;2023-05-07T09:51:42;21.60;68.90
37974;DHT22;23796;51.458;7.000;2023-05-07T09:54:09;21.70;68.50
37974;DHT22;23796;51.458;7.000;2023-05-07T09:56:35;21.50;69.60
37974;DHT22;23796;51.458;7.000;2023-05-07T09:59:07;21.00;70.30
37974;DHT22;23796;51.458;7.000;2023-05-07T10:01:36;21.20;71.00
37974;DHT22;23796;51.458;7.000;2023-05-07T10:04:02;21.70;68.40
37974;DHT22;23796;51.458;7.000;2023-05-07T10:06:30;21.90;68.20
37974;DHT22;23796;51.458;7.000;2023-05-07T10:08:56;21.80;67.70
37974;DHT22;23796;51.458;7.000;2023-05-07T10:11:22;22.10;67.70
37974;DHT22;23796;51.458;7.000;2023-05-07T10:13:52;22.50;66.90
37974;DHT22;23796;51.458;7.000;2023-05-07T10:16:21;22.60;66.80
37974;DHT22;23796;51.458;7.000;2023-05-07T10:18:52;22.80;65.80
37974;DHT22;23796;51.458;7.000;2023-05-07T10:21:21;22.30;65.90
37974;DHT22;23796;51.458;7.000;2023-05-07T10:23:53;21.80;66.70
37974;DHT22;23796;51.458;7.000;2023-05-07T10:26:23;21.80;67.00
37974;DHT22;23796;51.458;7.000;2023-05-07T10:29:02;22.30;65.80
37974;DHT22;23796;51.458;7.000;2023-05-07T10:34:11;22.90;63.50
37974;DHT22;23796;51.458;7.000;2023-05-07T10:36:37;22.90;63.60
37974;DHT22;23796;51.458;7.000;2023-05-07T10:39:03;23.00;63.10
37974;DHT22;23796;51.458;7.000;2023-05-07T10:41:32;23.20;62.50
37974;DHT22;23796;51.458;7.000;2023-05-07T10:43:58;23.30;62.10
37974;DHT22;23796;51.458;7.000;2023-05-07T10:46:27;23.50;62.00
37974;DHT22;23796;51.458;7.000;2023-05-07T10:51:32;23.70;61.10
37974;DHT22;23796;51.458;7.000;2023-05-07T10:54:18;23.70;61.30
37974;DHT22;23796;51.458;7.000;2023-05-07T10:56:44;23.70;60.80
37974;DHT22;23796;51.458;7.000;2023-05-07T11:01:57;23.80;60.20
37974;DHT22;23796;51.458;7.000;2023-05-07T11:04:25;23.80;60.00
37974;DHT22;23796;51.458;7.000;2023-05-07T11:15:13;23.10;61.60
37974;DHT22;23796;51.458;7.000;2023-05-07T11:17:57;23.40;61.60
37974;DHT22;23796;51.458;7.000;2023-05-07T11:26:11;22.50;64.10
37974;DHT22;23796;51.458;7.000;2023-05-07T11:28:41;22.80;63.00
37974;DHT22;23796;51.458;7.000;2023-05-07T11:31:07;23.00;63.00
37974;DHT22;23796;51.458;7.000;2023-05-07T11:33:34;23.50;62.00
37974;DHT22;23796;51.458;7.000;2023-05-07T11:36:01;23.70;61.00
37974;DHT22;23796;51.458;7.000;2023-05-07T11:38:30;23.80;61.10
37974;DHT22;23796;51.458;7.000;2023-05-07T11:40:59;23.70;61.30
37974;DHT22;23796;51.458;7.000;2023-05-07T11:43:26;23.90;60.50
37974;DHT22;23796;51.458;7.000;2023-05-07T11:45:52;23.70;61.20
37974;DHT22;23796;51.458;7.000;2023-05-07T11:48:18;24.10;60.50
37974;DHT22;23796;51.458;7.000;2023-05-07T11:50:54;24.40;60.00
37974;DHT22;23796;51.458;7.000;2023-05-07T11:53:28;24.50;59.60
37974;DHT22;23796;51.458;7.000;2023-05-07T11:55:55;24.60;59.30
37974;DHT22;23796;51.458;7.000;2023-05-07T11:58:22;24.70;59.20
37974;DHT22;23796;51.458;7.000;2023-05-07T12:00:53;24.80;58.80
37974;DHT22;23796;51.458;7.000;2023-05-07T12:03:19;24.80;58.50
37974;DHT22;23796;51.458;7.000;2023-05-07T12:05:45;24.80;58.80
37974;DHT22;23796;51.458;7.000;2023-05-07T12:08:19;24.90;58.30
37974;DHT22;23796;51.458;7.000;2023-05-07T12:10:47;24.20;58.90
37974;DHT22;23796;51.458;7.000;2023-05-07T12:13:17;24.20;59.80
37974;DHT22;23796;51.458;7.000;2023-05-07T12:15:43;24.50;59.10
37974;DHT22;23796;51.458;7.000;2023-05-07T12:18:10;24.70;58.70
37974;DHT22;23796;51.458;7.000;2023-05-07T12:20:37;24.70;58.70
37974;DHT22;23796;51.458;7.000;2023-05-07T12:23:07;24.70;58.80
37974;DHT22;23796;51.458;7.000;2023-05-07T12:25:40;24.50;59.20
37974;DHT22;23796;51.458;7.000;2023-05-07T12:28:16;24.00;60.40
37974;DHT22;23796;51.458;7.000;2023-05-07T12:30:43;24.10;60.20
37974;DHT22;23796;51.458;7.000;2023-05-07T12:33:10;24.20;59.70
37974;DHT22;23796;51.458;7.000;2023-05-07T12:35:39;24.40;59.60
37974;DHT22;23796;51.458;7.000;2023-05-07T12:38:10;23.70;61.00
37974;DHT22;23796;51.458;7.000;2023-05-07T12:40:38;23.70;60.90
37974;DHT22;23796;51.458;7.000;2023-05-07T12:43:04;23.80;60.80
37974;DHT22;23796;51.458;7.000;2023-05-07T12:45:30;23.40;61.80
37974;DHT22;23796;51.458;7.000;2023-05-07T12:47:56;23.60;60.90
37974;DHT22;23796;51.458;7.000;2023-05-07T12:50:31;23.60;61.00
37974;DHT22;23796;51.458;7.000;2023-05-07T12:52:56;23.50;61.20
37974;DHT22;23796;51.458;7.000;2023-05-07T12:55:25;23.40;61.00
37974;DHT22;23796;51.458;7.000;2023-05-07T12:57:51;23.30;61.40
37974;DHT22;23796;51.458;7.000;2023-05-07T13:00:31;23.30;61.60
37974;DHT22;23796;51.458;7.000;2023-05-07T13:02:58;23.10;61.70
37974;DHT22;23796;51.458;7.000;2023-05-07T13:05:24;23.00;61.90
37974;DHT22;23796;51.458;7.000;2023-05-07T13:07:56;22.90;62.50
37974;DHT22;23796;51.458;7.000;2023-05-07T13:10:24;22.70;62.90
37974;DHT22;23796;51.458;7.000;2023-05-07T13:12:50;22.60;63.00
37974;DHT22;23796;51.458;7.000;2023-05-07T13:15:19;22.50;63.20
37974;DHT22;23796;51.458;7.000;2023-05-07T13:17:45;22.50;63.20
37974;DHT22;23796;51.458;7.000;2023-05-07T13:20:14;22.40;63.40
37974;DHT22;23796;51.458;7.000;2023-05-07T13:22:44;22.40;63.70
37974;DHT22;23796;51.458;7.000;2023-05-07T13:25:10;22.30;63.90
37974;DHT22;23796;51.458;7.000;2023-05-07T13:27:38;22.20;64.20
37974;DHT22;23796;51.458;7.000;2023-05-07T13:30:04;22.10;64.50
37974;DHT22;23796;51.458;7.000;2023-05-07T13:32:30;22.10;64.80
37974;DHT22;23796;51.458;7.000;2023-05-07T13:35:01;22.00;64.90
37974;DHT22;23796;51.458;7.000;2023-05-07T13:39:59;21.90;65.40
37974;DHT22;23796;51.458;7.000;2023-05-07T13:42:25;21.90;65.20
37974;DHT22;23796;51.458;7.000;2023-05-07T13:44:51;21.80;65.10
37974;DHT22;23796;51.458;7.000;2023-05-07T13:47:16;21.80;65.10
37974;DHT22;23796;51.458;7.000;2023-05-07T13:49:47;21.80;65.30
37974;DHT22;23796;51.458;7.000;2023-05-07T13:52:15;21.60;67.30
37974;DHT22;23796;51.458;7.000;2023-05-07T13:54:41;21.40;68.90
37974;DHT22;23796;51.458;7.000;2023-05-07T13:57:09;21.30;69.60
37974;DHT22;23796;51.458;7.000;2023-05-07T13:59:37;21.30;70.00
37974;DHT22;23796;51.458;7.000;2023-05-07T14:02:03;21.20;71.20
37974;DHT22;23796;51.458;7.000;2023-05-07T14:04:30;21.10;72.40
37974;DHT22;23796;51.458;7.000;2023-05-07T14:06:55;21.10;73.80
37974;DHT22;23796;51.458;7.000;2023-05-07T14:09:24;20.80;74.80
37974;DHT22;23796;51.458;7.000;2023-05-07T14:11:54;20.70;76.20
37974;DHT22;23796;51.458;7.000;2023-05-07T14:14:22;20.70;76.80
37974;DHT22;23796;51.458;7.000;2023-05-07T14:16:50;20.50;78.30
37974;DHT22;23796;51.458;7.000;2023-05-07T14:19:18;20.50;78.30
37974;DHT22;23796;51.458;7.000;2023-05-07T14:21:51;20.30;78.70
37974;DHT22;23796;51.458;7.000;2023-05-07T14:24:19;20.30;78.70
37974;DHT22;23796;51.458;7.000;2023-05-07T14:26:45;20.10;80.30
37974;DHT22;23796;51.458;7.000;2023-05-07T14:29:13;19.90;81.00
37974;DHT22;23796;51.458;7.000;2023-05-07T14:31:40;19.90;80.70
37974;DHT22;23796;51.458;7.000;2023-05-07T14:34:11;20.00;80.50
37974;DHT22;23796;51.458;7.000;2023-05-07T14:36:36;20.10;80.90
37974;DHT22;23796;51.458;7.000;2023-05-07T14:39:03;20.10;81.70
37974;DHT22;23796;51.458;7.000;2023-05-07T14:41:29;20.10;83.00
37974;DHT22;23796;51.458;7.000;2023-05-07T14:43:58;20.10;83.20
37974;DHT22;23796;51.458;7.000;2023-05-07T14:46:24;20.00;84.30
37974;DHT22;23796;51.458;7.000;2023-05-07T14:48:50;20.10;84.80
37974;DHT22;23796;51.458;7.000;2023-05-07T14:51:15;20.30;83.30
37974;DHT22;23796;51.458;7.000;2023-05-07T14:53:43;20.40;81.80
37974;DHT22;23796;51.458;7.000;2023-05-07T14:56:09;20.50;79.50
37974;DHT22;23796;51.458;7.000;2023-05-07T14:58:49;20.60;78.80
37974;DHT22;23796;51.458;7.000;2023-05-07T15:01:14;20.60;79.10
37974;DHT22;23796;51.458;7.000;2023-05-07T15:03:41;20.70;78.60
37974;DHT22;23796;51.458;7.000;2023-05-07T15:06:08;20.80;77.50
37974;DHT22;23796;51.458;7.000;2023-05-07T15:08:34;20.80;78.40
37974;DHT22;23796;51.458;7.000;2023-05-07T15:11:02;20.90;78.00
37974;DHT22;23796;51.458;7.000;2023-05-07T15:13:27;21.00;77.40
37974;DHT22;23796;51.458;7.000;2023-05-07T15:15:53;21.00;77.50
37974;DHT22;23796;51.458;7.000;2023-05-07T15:18:21;21.00;77.60
37974;DHT22;23796;51.458;7.000;2023-05-07T15:20:48;21.00;77.30
37974;DHT22;23796;51.458;7.000;2023-05-07T15:23:14;21.10;77.30
37974;DHT22;23796;51.458;7.000;2023-05-07T15:25:40;21.10;77.10
37974;DHT22;23796;51.458;7.000;2023-05-07T15:28:08;21.00;77.40
37974;DHT22;23796;51.458;7.000;2023-05-07T15:30:34;21.00;77.90
37974;DHT22;23796;51.458;7.000;2023-05-07T15:33:03;20.60;78.30
37974;DHT22;23796;51.458;7.000;2023-05-07T15:35:29;20.40;79.90
37974;DHT22;23796;51.458;7.000;2023-05-07T15:37:54;20.40;80.30
37974;DHT22;23796;51.458;7.000;2023-05-07T15:40:21;20.60;79.10
37974;DHT22;23796;51.458;7.000;2023-05-07T15:42:46;20.80;78.40
37974;DHT22;23796;51.458;7.000;2023-05-07T15:45:15;20.90;78.30
37974;DHT22;23796;51.458;7.000;2023-05-07T15:47:41;20.90;77.50
37974;DHT22;23796;51.458;7.000;2023-05-07T15:50:06;20.90;77.20
37974;DHT22;23796;51.458;7.000;2023-05-07T15:52:32;20.90;78.10
37974;DHT22;23796;51.458;7.000;2023-05-07T15:55:00;20.80;78.60